Baldwin, Colorado
Current Conditions -  °F | °C
As of 10:55 PM on Saturday 22 Nov 2014 (Local Time) from KGUC Reporting Station
Overcast Overcast  
Wind Chill: 28°   Ceiling: 2000
Heat Index: 28°   Visibility: 3mi
Dew Point: 25°   Wind: 0mph
Humidity: 86%   Direction: NA
Pressure: 29.8"   Gusts: NA
Location:  38.5539°N, 107.09°W
Report Text: KGUC 230555Z AUTO 00000KT 3SM FEW011 OVC020 M02/M04 A2980 RMK AO1 60001 11010 21020 57024
Loading
Personal Weather Stations






























Interactive Weather Map New forecast layout! Learn more

10-Day Weather Forecast

Advertisements
Track Severe Weather on mobile